createdAt,value
2023-01-25T00:03:32.757Z,100837.69
2023-01-25T00:06:19.905Z,100853.06
2023-01-25T00:09:06.961Z,100834.84
2023-01-25T00:11:56.525Z,100846.25
2023-01-25T00:14:43.551Z,100832.94
2023-01-25T00:17:30.619Z,100828.81
2023-01-25T00:20:17.807Z,100840.84
2023-01-25T00:23:04.909Z,100841.91
2023-01-25T00:25:58.885Z,100836.16
2023-01-25T00:28:53.539Z,100836.28
2023-01-25T00:31:49.646Z,100839.25
2023-01-25T00:34:50.311Z,100842.97
2023-01-25T00:37:38.881Z,100836.56
2023-01-25T00:40:26.039Z,100836.41
2023-01-25T00:43:14.784Z,100831.44
2023-01-25T00:46:02.114Z,100831.53
2023-01-25T00:48:52.970Z,100828.22
2023-01-25T00:51:40.026Z,100842.66
2023-01-25T00:54:27.384Z,100857.69
2023-01-25T00:57:14.861Z,100836.31
2023-01-25T01:00:01.947Z,100827.50
2023-01-25T01:02:49.046Z,100842.56
2023-01-25T01:05:36.773Z,100844.56
2023-01-25T01:08:23.939Z,100830.34
2023-01-25T01:11:12.649Z,100841.03
2023-01-25T01:14:00.637Z,100822.34
2023-01-25T01:16:47.955Z,100842.56
2023-01-25T01:19:35.294Z,100834.88
2023-01-25T01:22:22.412Z,100845.44
2023-01-25T01:25:10.972Z,100843.81
2023-01-25T01:27:58.025Z,100842.63
2023-01-25T01:30:45.098Z,100834.28
2023-01-25T01:33:33.957Z,100840.78
2023-01-25T01:36:25.169Z,100849.75
2023-01-25T01:39:12.259Z,100823.63
2023-01-25T01:41:59.361Z,100837.44
2023-01-25T01:44:50.039Z,100839.88
2023-01-25T01:47:46.077Z,100832.06
2023-01-25T01:50:33.205Z,100844.88
2023-01-25T01:53:24.791Z,100832.78
2023-01-25T01:56:17.343Z,100833.97
2023-01-25T01:59:06.325Z,100831.44
2023-01-25T02:01:54.246Z,100829.84
2023-01-25T02:04:44.387Z,100826.63
2023-01-25T02:07:35.484Z,100840.28
2023-01-25T02:10:25.319Z,100837.03
2023-01-25T02:13:12.436Z,100814.72
2023-01-25T02:15:59.726Z,100831.44
2023-01-25T02:18:47.052Z,100827.00
2023-01-25T02:21:41.269Z,100827.19
2023-01-25T02:24:32.683Z,100840.13
2023-01-25T02:27:20.473Z,100837.75
2023-01-25T02:30:09.723Z,100837.63
2023-01-25T02:32:56.812Z,100836.41
2023-01-25T02:35:48.640Z,100833.56
2023-01-25T02:38:39.731Z,100839.97
2023-01-25T02:41:41.138Z,100817.63
2023-01-25T02:44:34.392Z,100825.63
2023-01-25T02:47:21.566Z,100836.97
2023-01-25T02:50:09.781Z,100835.16
2023-01-25T02:52:56.878Z,100843.00
2023-01-25T02:55:43.945Z,100834.34
2023-01-25T02:58:31.188Z,100828.06
2023-01-25T03:01:18.376Z,100838.59
2023-01-25T03:04:12.475Z,100754.50
2023-01-25T03:06:59.537Z,100827.84
2023-01-25T03:09:46.581Z,100819.03
2023-01-25T03:12:33.702Z,100817.31
2023-01-25T03:15:20.752Z,100806.78
2023-01-25T03:18:07.892Z,100817.09
2023-01-25T03:20:55.061Z,100805.00
2023-01-25T03:23:43.055Z,100815.47
2023-01-25T03:26:30.583Z,100802.03
2023-01-25T03:29:17.642Z,100798.72
2023-01-25T03:32:05.135Z,100802.34
2023-01-25T03:34:52.350Z,100780.44
2023-01-25T03:37:39.383Z,100788.19
2023-01-25T03:40:26.480Z,100786.19
2023-01-25T03:43:13.595Z,100790.63
2023-01-25T03:46:01.951Z,100783.75
2023-01-25T03:48:49.005Z,100777.03
2023-01-25T03:51:36.270Z,100778.78
2023-01-25T03:54:23.441Z,100783.03
2023-01-25T03:57:10.533Z,100764.50
2023-01-25T03:59:57.562Z,100788.31
2023-01-25T04:02:44.751Z,100761.97
2023-01-25T04:05:31.809Z,100764.28
2023-01-25T04:08:19.058Z,100767.69
2023-01-25T04:11:10.788Z,100764.94
2023-01-25T04:13:57.965Z,100752.06
2023-01-25T04:16:45.021Z,100749.66
2023-01-25T04:19:32.225Z,100752.13
2023-01-25T04:22:19.508Z,100741.84
2023-01-25T04:25:08.231Z,100728.91
2023-01-25T04:27:55.505Z,100739.44
2023-01-25T04:30:42.601Z,100729.09
2023-01-25T04:33:30.352Z,100735.31
2023-01-25T04:36:17.445Z,100734.28
2023-01-25T04:39:04.583Z,100721.50
2023-01-25T04:41:51.646Z,100730.25
2023-01-25T04:44:38.671Z,100724.91
2023-01-25T04:47:25.779Z,100725.25
2023-01-25T04:50:12.835Z,100726.47
2023-01-25T04:52:59.908Z,100730.19
2023-01-25T04:55:47.799Z,100709.22
2023-01-25T04:58:34.903Z,100720.94
2023-01-25T05:01:22.077Z,100734.69
2023-01-25T05:04:09.363Z,100721.16
2023-01-25T05:06:56.386Z,100730.72
2023-01-25T05:09:43.442Z,100718.78
2023-01-25T05:12:30.448Z,100722.09
2023-01-25T05:15:17.631Z,100734.34
2023-01-25T05:18:05.029Z,100726.00
2023-01-25T05:20:56.400Z,100723.00
2023-01-25T05:23:43.427Z,100713.91
2023-01-25T05:26:49.365Z,100721.31
2023-01-25T05:29:39.870Z,100710.34
2023-01-25T05:32:26.978Z,100719.44
2023-01-25T05:35:14.143Z,100711.38
2023-01-25T05:38:01.223Z,100706.94
2023-01-25T05:40:48.250Z,100697.53
2023-01-25T05:43:35.367Z,100686.19
2023-01-25T05:46:22.465Z,100706.03
2023-01-25T05:49:10.651Z,100702.78
2023-01-25T05:51:57.681Z,100690.94
2023-01-25T05:54:44.985Z,100683.38
2023-01-25T05:57:32.071Z,100697.53
2023-01-25T06:00:19.502Z,100691.81
2023-01-25T06:03:06.640Z,100687.47
2023-01-25T06:05:58.632Z,100678.72
2023-01-25T06:08:45.842Z,100683.22
2023-01-25T06:11:32.914Z,100687.94
2023-01-25T06:14:20.095Z,100703.91
2023-01-25T06:17:07.236Z,100703.75
2023-01-25T06:19:54.270Z,100707.69
2023-01-25T06:22:41.409Z,100703.50
2023-01-25T06:25:28.428Z,100713.50
2023-01-25T06:28:15.518Z,100715.16
2023-01-25T06:31:06.801Z,100723.00
2023-01-25T06:33:54.049Z,100703.88
2023-01-25T06:36:41.077Z,100701.53
2023-01-25T06:39:29.830Z,100726.78
2023-01-25T06:42:16.878Z,100723.31
2023-01-25T06:45:04.153Z,100717.91
2023-01-25T06:47:52.208Z,100708.41
2023-01-25T06:50:39.377Z,100719.59
2023-01-25T06:53:28.473Z,100727.31
2023-01-25T06:56:21.926Z,100718.69
2023-01-25T06:59:09.179Z,100710.03
2023-01-25T07:01:56.285Z,100721.44
2023-01-25T07:04:43.345Z,100726.28
2023-01-25T07:07:30.710Z,100707.28
2023-01-25T07:10:17.835Z,100710.78
2023-01-25T07:13:04.893Z,100696.28
2023-01-25T07:16:06.553Z,100709.97
2023-01-25T07:18:54.473Z,100707.88
2023-01-25T07:21:41.757Z,100693.16
2023-01-25T07:24:29.912Z,100702.72
2023-01-25T07:27:17.411Z,100706.25
2023-01-25T07:30:04.879Z,100702.41
2023-01-25T07:32:51.929Z,100699.47
2023-01-25T07:35:39.200Z,100691.69
2023-01-25T07:38:26.263Z,100691.59
2023-01-25T07:41:13.498Z,100690.94
2023-01-25T07:44:00.825Z,100680.63
2023-01-25T07:46:55.255Z,100691.16
2023-01-25T07:49:42.297Z,100690.59
2023-01-25T07:52:29.386Z,100688.72
2023-01-25T07:55:16.649Z,100689.09
2023-01-25T07:58:03.911Z,100675.84
2023-01-25T08:00:50.909Z,100681.91
2023-01-25T08:03:38.472Z,100691.09
2023-01-25T08:06:35.898Z,100684.06
2023-01-25T08:09:23.195Z,100679.47
2023-01-25T08:12:10.402Z,100676.63
2023-01-25T08:14:57.710Z,100678.78
2023-01-25T08:17:44.771Z,100693.75
2023-01-25T08:20:31.861Z,100689.41
2023-01-25T08:23:20.609Z,100690.91
2023-01-25T08:26:09.825Z,100678.53
2023-01-25T08:28:57.694Z,100672.59
2023-01-25T08:31:45.448Z,100689.44
2023-01-25T08:34:33.000Z,100687.88
2023-01-25T08:37:20.147Z,100674.91
2023-01-25T08:40:08.375Z,100662.97
2023-01-25T08:42:55.904Z,100668.22
2023-01-25T08:45:42.960Z,100658.59
2023-01-25T08:48:30.275Z,100669.69
2023-01-25T08:51:17.364Z,100649.34
2023-01-25T08:54:08.074Z,100646.50
2023-01-25T08:56:55.193Z,100639.28
2023-01-25T08:59:42.328Z,100635.47
2023-01-25T09:02:29.499Z,100644.25
2023-01-25T09:05:16.750Z,100646.16
2023-01-25T09:08:07.727Z,100644.31
2023-01-25T09:10:55.088Z,100639.69
2023-01-25T09:13:45.331Z,100644.75
2023-01-25T09:16:32.277Z,100641.16
2023-01-25T09:19:19.268Z,100644.31
2023-01-25T09:22:06.455Z,100632.13
2023-01-25T09:24:54.121Z,100639.44
2023-01-25T09:27:41.926Z,100637.41
2023-01-25T09:30:44.849Z,100644.19
2023-01-25T09:33:35.767Z,100636.06
2023-01-25T09:36:22.818Z,100629.41
2023-01-25T09:39:12.509Z,100628.41
2023-01-25T09:42:22.551Z,100627.38
2023-01-25T09:45:13.816Z,100630.75
2023-01-25T09:48:20.633Z,100636.31
2023-01-25T09:51:13.560Z,100628.09
2023-01-25T09:54:04.275Z,100620.63
2023-01-25T09:56:52.170Z,100614.44
2023-01-25T09:59:41.124Z,100608.47
2023-01-25T10:02:38.806Z,100613.97
2023-01-25T10:05:35.019Z,100601.00
2023-01-25T10:08:30.354Z,100596.75
2023-01-25T10:11:27.860Z,100595.31
2023-01-25T10:14:17.460Z,100586.31
2023-01-25T10:17:13.363Z,100580.28
2023-01-25T10:20:16.175Z,100567.56
2023-01-25T10:23:09.448Z,100567.19
2023-01-25T10:26:20.653Z,100565.56
2023-01-25T10:29:27.902Z,100565.88
2023-01-25T10:32:24.920Z,100545.91
2023-01-25T10:35:34.343Z,100548.97
2023-01-25T10:38:45.717Z,100547.38
2023-01-25T10:41:41.202Z,100544.50
2023-01-25T10:44:29.203Z,100544.06
2023-01-25T10:47:26.288Z,100530.44
2023-01-25T10:50:38.936Z,100527.78
2023-01-25T10:53:39.533Z,100516.31
2023-01-25T10:56:27.835Z,100500.25
2023-01-25T10:59:20.789Z,100508.53
2023-01-25T11:02:35.996Z,100507.88
2023-01-25T11:05:33.760Z,100511.13
2023-01-25T11:08:27.056Z,100503.56
2023-01-25T11:11:27.778Z,100496.53
2023-01-25T11:14:18.535Z,100466.28
2023-01-25T11:17:06.667Z,100469.44
2023-01-25T11:20:21.440Z,100467.06
2023-01-25T11:23:26.746Z,100460.69
2023-01-25T11:26:18.004Z,100442.53
2023-01-25T11:29:24.291Z,100451.50
2023-01-25T11:32:25.242Z,100447.63
2023-01-25T11:35:15.005Z,100451.34
2023-01-25T11:38:18.324Z,100433.16
2023-01-25T11:41:24.050Z,100440.88
2023-01-25T11:44:23.341Z,100432.34
2023-01-25T11:47:13.346Z,100417.50
2023-01-25T11:50:20.270Z,100413.38
2023-01-25T11:53:16.411Z,100407.94
2023-01-25T11:56:29.650Z,100398.09
2023-01-25T11:59:52.126Z,100392.00
2023-01-25T12:02:54.273Z,100389.34
2023-01-25T12:06:25.099Z,100378.72
2023-01-25T12:09:35.053Z,100376.00
2023-01-25T12:12:28.005Z,100379.88
2023-01-25T12:15:15.008Z,100376.38
2023-01-25T12:18:15.905Z,100361.69
2023-01-25T12:21:30.170Z,100348.72
2023-01-25T12:24:41.438Z,100362.41
2023-01-25T12:27:42.937Z,100352.47
2023-01-25T12:30:50.447Z,100337.66
2023-01-25T12:34:03.720Z,100329.72
2023-01-25T12:36:51.685Z,100340.25
2023-01-25T12:39:44.675Z,100337.28
2023-01-25T12:42:47.802Z,100317.47
2023-01-25T12:45:38.275Z,100314.06
2023-01-25T12:48:36.833Z,100318.66
2023-01-25T12:51:28.265Z,100266.69
2023-01-25T12:54:36.425Z,100316.94
2023-01-25T12:57:34.136Z,100307.72
2023-01-25T13:00:57.705Z,100295.69
2023-01-25T13:03:54.977Z,100301.22
2023-01-25T13:07:10.063Z,100283.03
2023-01-25T13:10:03.053Z,100285.25
2023-01-25T13:12:55.413Z,100283.38
2023-01-25T13:15:44.677Z,100290.22
2023-01-25T13:18:32.709Z,100291.41
2023-01-25T13:21:39.429Z,100287.16
2023-01-25T13:24:34.835Z,100295.81
2023-01-25T13:27:28.103Z,100277.09
2023-01-25T13:30:31.566Z,100275.63
2023-01-25T13:33:34.412Z,100264.97
2023-01-25T13:36:40.332Z,100279.28
2023-01-25T13:39:27.335Z,100274.22
2023-01-25T13:42:20.231Z,100271.06
2023-01-25T13:45:18.873Z,100243.50
2023-01-25T13:48:13.357Z,100253.19
2023-01-25T13:51:09.510Z,100246.78
2023-01-25T13:54:00.313Z,100239.97
2023-01-25T13:56:47.521Z,100250.09
2023-01-25T13:59:34.857Z,100248.03
2023-01-25T14:02:25.768Z,100248.13
2023-01-25T14:05:21.510Z,100221.03
2023-01-25T14:08:10.687Z,100245.88
2023-01-25T14:10:58.304Z,100244.22
2023-01-25T14:14:17.458Z,100250.94
2023-01-25T14:17:21.018Z,100249.13
2023-01-25T14:20:19.108Z,100238.28
2023-01-25T14:23:06.167Z,100217.19
2023-01-25T14:25:55.528Z,100246.19
2023-01-25T14:28:58.971Z,100232.88
2023-01-25T14:31:51.893Z,100246.16
2023-01-25T14:34:39.019Z,100238.03
2023-01-25T14:37:26.122Z,100230.84
2023-01-25T14:40:13.640Z,100235.44
2023-01-25T14:43:01.177Z,100224.28
2023-01-25T14:45:48.483Z,100221.25
2023-01-25T14:48:41.538Z,100227.34
2023-01-25T14:51:30.589Z,100215.50
2023-01-25T14:54:24.609Z,100211.66
2023-01-25T14:57:41.949Z,100212.59
2023-01-25T15:00:34.587Z,100211.88
2023-01-25T15:03:26.850Z,100194.25
2023-01-25T15:06:14.075Z,100202.56
2023-01-25T15:09:01.159Z,100212.47
2023-01-25T15:11:59.601Z,100200.22
2023-01-25T15:14:51.864Z,100202.22
2023-01-25T15:17:47.413Z,100202.75
2023-01-25T15:20:41.717Z,100196.03
2023-01-25T15:23:30.068Z,100190.66
2023-01-25T15:26:32.032Z,100182.28
2023-01-25T15:29:22.310Z,100184.72
2023-01-25T15:32:17.889Z,100184.41
2023-01-25T15:35:07.195Z,100162.78
2023-01-25T15:37:54.324Z,100161.28
2023-01-25T15:40:43.357Z,100169.97
2023-01-25T15:43:30.459Z,100140.00
2023-01-25T15:46:17.488Z,100173.56
2023-01-25T15:49:06.857Z,100161.56
2023-01-25T15:51:54.903Z,100168.31
2023-01-25T15:54:48.620Z,100174.34
2023-01-25T15:57:39.067Z,100151.34
2023-01-25T16:00:26.396Z,100164.31
2023-01-25T16:03:13.961Z,100171.41
2023-01-25T16:06:06.103Z,100171.50
2023-01-25T16:08:53.212Z,100178.28
2023-01-25T16:11:40.296Z,100155.56
2023-01-25T16:14:30.396Z,100156.50
2023-01-25T16:17:24.862Z,100176.19
2023-01-25T16:20:19.235Z,100171.47
2023-01-25T16:23:06.654Z,100164.69
2023-01-25T16:25:54.144Z,100160.50
2023-01-25T16:28:41.656Z,100170.25
2023-01-25T16:31:33.492Z,100149.50
2023-01-25T16:34:22.385Z,100164.50
2023-01-25T16:37:17.567Z,100157.38
2023-01-25T16:40:05.137Z,100145.53
2023-01-25T16:42:52.812Z,100152.06
2023-01-25T16:45:41.614Z,100141.59
2023-01-25T16:48:30.437Z,100141.59
2023-01-25T16:51:19.815Z,100146.13
2023-01-25T16:54:07.096Z,100138.78
2023-01-25T16:56:55.705Z,100137.88
2023-01-25T16:59:44.167Z,100118.81
2023-01-25T17:02:31.632Z,100128.19
2023-01-25T17:05:19.189Z,100133.66
2023-01-25T17:08:06.530Z,100117.22
2023-01-25T17:10:57.703Z,100124.16
2023-01-25T17:13:52.442Z,100126.75
2023-01-25T17:16:40.196Z,100115.50
2023-01-25T17:19:29.236Z,100105.84
2023-01-25T17:22:17.052Z,100092.03
2023-01-25T17:25:06.036Z,100101.28
2023-01-25T17:27:53.636Z,100103.22
2023-01-25T17:30:45.356Z,100101.13
2023-01-25T17:33:33.515Z,100095.97
2023-01-25T17:36:21.654Z,100094.31
2023-01-25T17:39:09.598Z,100087.59
2023-01-25T17:41:57.926Z,100082.19
2023-01-25T17:44:45.990Z,100081.56
2023-01-25T17:47:36.050Z,100072.34
2023-01-25T17:50:24.018Z,100076.41
2023-01-25T17:53:11.923Z,100065.97
2023-01-25T17:56:04.176Z,100074.31
2023-01-25T17:58:52.667Z,100073.13
2023-01-25T18:01:45.490Z,100064.88
2023-01-25T18:04:36.497Z,100058.22
2023-01-25T18:07:27.532Z,100052.16
2023-01-25T18:10:15.796Z,100036.88
2023-01-25T18:13:05.948Z,100057.94
2023-01-25T18:15:56.887Z,100048.78
2023-01-25T18:18:47.433Z,100043.59
2023-01-25T18:21:44.148Z,100041.88
2023-01-25T18:24:33.513Z,100036.78
2023-01-25T18:27:27.592Z,100037.59
2023-01-25T18:30:35.550Z,100026.19
2023-01-25T18:33:23.922Z,100014.69
2023-01-25T18:36:16.154Z,100016.72
2023-01-25T18:39:07.526Z,100034.59
2023-01-25T18:41:55.527Z,100028.59
2023-01-25T18:44:45.987Z,100026.94
2023-01-25T18:47:34.277Z,100015.63
2023-01-25T18:50:21.982Z,99997.72
2023-01-25T18:53:10.880Z,100005.91
2023-01-25T18:56:08.614Z,100003.25
2023-01-25T18:58:59.546Z,99994.59
2023-01-25T19:01:48.511Z,99996.44
2023-01-25T19:04:36.840Z,99979.09
2023-01-25T19:07:25.063Z,99977.38
2023-01-25T19:10:13.223Z,99986.97
2023-01-25T19:13:01.993Z,99972.25
2023-01-25T19:15:50.318Z,99975.59
2023-01-25T19:18:42.781Z,99937.81
2023-01-25T19:21:32.328Z,99966.88
2023-01-25T19:24:21.559Z,99975.25
2023-01-25T19:27:11.163Z,99965.28
2023-01-25T19:29:59.524Z,99974.66
2023-01-25T19:32:48.107Z,99961.88
2023-01-25T19:35:36.441Z,99967.78
2023-01-25T19:38:24.699Z,99923.09
2023-01-25T19:41:16.168Z,99958.34
2023-01-25T19:44:06.959Z,99945.97
2023-01-25T19:46:55.172Z,99937.09
2023-01-25T19:49:43.343Z,99934.88
2023-01-25T19:52:31.733Z,99927.13
2023-01-25T19:55:19.430Z,99931.16
2023-01-25T19:58:09.012Z,99925.00
2023-01-25T20:00:57.041Z,99915.53
2023-01-25T20:03:45.869Z,99928.84
2023-01-25T20:06:34.067Z,99915.97
2023-01-25T20:09:28.444Z,99917.69
2023-01-25T20:12:16.558Z,99904.25
2023-01-25T20:15:05.758Z,99909.06
2023-01-25T20:18:01.351Z,99901.97
2023-01-25T20:21:00.431Z,99885.19
2023-01-25T20:23:57.418Z,99882.72
2023-01-25T20:26:45.864Z,99898.19
2023-01-25T20:29:33.816Z,99899.22
2023-01-25T20:32:32.240Z,99890.47
2023-01-25T20:35:21.001Z,99856.13
2023-01-25T20:38:09.145Z,99876.66
2023-01-25T20:41:03.394Z,99872.75
2023-01-25T20:43:58.049Z,99876.72
2023-01-25T20:46:47.676Z,99880.94
2023-01-25T20:49:40.215Z,99870.56
2023-01-25T20:52:28.684Z,99869.38
2023-01-25T20:55:18.186Z,99875.59
2023-01-25T20:58:07.580Z,99863.22
2023-01-25T21:00:56.665Z,99869.31
2023-01-25T21:03:44.802Z,99858.78
2023-01-25T21:06:34.847Z,99848.44
2023-01-25T21:09:23.991Z,99852.63
2023-01-25T21:12:12.231Z,99854.06
2023-01-25T21:15:01.084Z,99841.91
2023-01-25T21:17:54.510Z,99849.13
2023-01-25T21:20:42.550Z,99839.69
2023-01-25T21:23:30.728Z,99834.56
2023-01-25T21:26:23.971Z,99839.06
2023-01-25T21:29:11.742Z,99846.16
2023-01-25T21:31:59.990Z,99837.59
2023-01-25T21:34:48.249Z,99833.84
2023-01-25T21:37:39.332Z,99831.91
2023-01-25T21:40:29.279Z,99811.59
2023-01-25T21:43:19.323Z,99820.09
2023-01-25T21:46:13.917Z,99820.72
2023-01-25T21:49:21.627Z,99821.03
2023-01-25T21:52:10.591Z,99823.88
2023-01-25T21:54:58.529Z,99814.09
2023-01-25T21:57:47.699Z,99807.94
2023-01-25T22:00:36.270Z,99808.72
2023-01-25T22:03:24.576Z,99794.16
2023-01-25T22:06:11.691Z,99808.00
2023-01-25T22:08:58.842Z,99808.88
2023-01-25T22:11:46.470Z,99806.72
2023-01-25T22:14:33.708Z,99787.00
2023-01-25T22:17:22.658Z,99800.41
2023-01-25T22:20:10.824Z,99787.34
2023-01-25T22:22:58.124Z,99790.78
2023-01-25T22:25:45.211Z,99784.91
2023-01-25T22:28:53.831Z,99794.28
2023-01-25T22:31:41.650Z,99765.91
2023-01-25T22:34:28.710Z,99769.28
2023-01-25T22:37:15.855Z,99772.78
2023-01-25T22:40:03.021Z,99766.09
2023-01-25T22:42:50.105Z,99746.25
2023-01-25T22:45:37.204Z,99761.41
2023-01-25T22:48:24.410Z,99746.00
2023-01-25T22:51:17.082Z,99748.03
2023-01-25T22:54:04.380Z,99742.50
2023-01-25T22:56:51.795Z,99740.41
2023-01-25T22:59:39.235Z,99737.53
2023-01-25T23:02:26.804Z,99753.88
2023-01-25T23:05:14.025Z,99738.38
2023-01-25T23:08:01.178Z,99730.03
2023-01-25T23:10:48.338Z,99740.31
2023-01-25T23:13:37.176Z,99726.00
2023-01-25T23:16:24.239Z,99735.97
2023-01-25T23:19:11.327Z,99722.81
2023-01-25T23:21:58.391Z,99716.19
2023-01-25T23:24:45.461Z,99717.69
2023-01-25T23:27:32.507Z,99729.59
2023-01-25T23:30:19.693Z,99701.66
2023-01-25T23:33:06.749Z,99700.56
2023-01-25T23:35:53.873Z,99687.25
2023-01-25T23:38:42.371Z,99711.38
2023-01-25T23:41:30.647Z,99705.25
2023-01-25T23:44:17.750Z,99692.25
2023-01-25T23:47:04.894Z,99684.78
2023-01-25T23:49:52.002Z,99689.91
2023-01-25T23:52:39.037Z,99701.03
2023-01-25T23:55:26.175Z,99694.09
2023-01-25T23:58:13.227Z,99693.16
